Aérodrome :
LOGIN :

S'inscrire | Disclaimer

   EN    FR    IT 

 










Légende :    VFR   VFR Marginal   IFR   IFR Intensif   IFR Très Intensif
Visi : 
Plafond : 
>= 8 km
>= 3000ft
5 à 8 km
1000 à 3000 ft
1500m à 5 km
500 à 1000 ft
800 à 1500m
200 à 500 ft
< 800m
< 200 ft
Symboles :   Orages  Brouillard  Fortes neiges  Fortes précipitations  Vent > 20 kt
SIGMETs :   Divers  Orages  Givrage  Turbulence  Onde Orograph.  Cendres Volcan.







- Altitude de l'aérodrome : 436 ft
- Code IATA : ANG
- Voir les cartes d'approche


LFBU - Angoulême Brie Champniers

DERNIER METAR :
  • 210300Z AUTO 16009KT 130V200 CAVOK 15/12 Q1015

METARs EXPIRÉS :
  • 210230Z AUTO 16008KT 120V210 CAVOK 15/12 Q1015
  • 210200Z AUTO 16008KT 130V210 CAVOK 15/12 Q1015
  • 210130Z AUTO 16008KT 140V200 CAVOK 15/12 Q1015
  • 210100Z AUTO 16009KT CAVOK 15/12 Q1015
  • 210030Z AUTO 16007KT 130V220 CAVOK 15/12 Q1016

TAF TAF LFBU
Valide du 20 à 18h jusqu'au 21 à 18h UTC


201700Z 2018/2118 20010KT 9999 BKN030
TEMPO 2022/2104 CAVOK
TEMPO 2105/2110 26010KT 4000 -RA
BECMG 2112/2114 25015G25KT
PROB40
TEMPO 2114/2118 4000 -SHRA SCT025TCU BKN030
Pas de NOTAMs connus pour ce terrain.



MET'MAP, la Météo Aéronautique d'un coup d'oeil ! - Copyright ORBIFLY Décembre 2007 - Disclaimer

ORBIFLY MET'MAP TEAM :

Programmation & Développement : Alexandra Zaïnal
Conception & Développement : Baudouin d'Aumeries
Co-Programmation & Développement : Marc-Olivier Méhu
Soutien technique & logistique : Manuel Goepfert

Contact : metmap@orbifly.com




SOURCES & CREDITS :

   NOAA